Aérodrome :
LOGIN :

S'inscrire | Disclaimer

   EN    FR    IT 

 










Légende :    VFR   VFR Marginal   IFR   IFR Intensif   IFR Très Intensif
Visi : 
Plafond : 
>= 8 km
>= 3000ft
5 à 8 km
1000 à 3000 ft
1500m à 5 km
500 à 1000 ft
800 à 1500m
200 à 500 ft
< 800m
< 200 ft
Symboles :   Orages  Brouillard  Fortes neiges  Fortes précipitations  Vent > 20 kt
SIGMETs :   Divers  Orages  Givrage  Turbulence  Onde Orograph.  Cendres Volcan.







- Altitude de l'aérodrome : 195 ft
- Voir les cartes d'approche


LFMY - Salon de Provence

DERNIER METAR :
  • 211100Z AUTO 22005KT 200V260 9999 ///CB 24/12 Q1012 TEMPO VRB15G25KT 3000 TSRA

METARs EXPIRÉS :
  • 211030Z AUTO VRB03KT CAVOK 24/12 Q1012 TEMPO VRB15G25KT 3000 TSRA BKN030CB
  • 211000Z AUTO 08007KT 020V150 CAVOK 24/12 Q1012 TEMPO VRB15G25KT 2000 TSRA BKN030CB
  • 210930Z AUTO VRB02KT CAVOK 24/12 Q1012 TEMPO VRB15G25KT 2000 TSRA BKN030CB
  • 210900Z AUTO VRB03KT CAVOK 23/12 Q1012
  • 210830Z AUTO VRB03KT CAVOK 23/14 Q1012
  • 210800Z AUTO VRB01KT CAVOK 22/12 Q1013

TAF AMD TAF LFMY
Valide du 21 à 10h jusqu'au 22 à 09h UTC


211008Z 2110/2209 VRB05KT CAVOK
TEMPO 2111/2120 5000 SHRA SCT030 SCT050TCU
PROB30
TEMPO 2111/2117 VRB15G25KT 3000 TSRA BKN030CB
Pas de NOTAMs connus pour ce terrain.



MET'MAP, la Météo Aéronautique d'un coup d'oeil ! - Copyright ORBIFLY Décembre 2007 - Disclaimer

ORBIFLY MET'MAP TEAM :

Programmation & Développement : Alexandra Zaïnal
Conception & Développement : Baudouin d'Aumeries
Co-Programmation & Développement : Marc-Olivier Méhu
Soutien technique & logistique : Manuel Goepfert

Contact : metmap@orbifly.com




SOURCES & CREDITS :

   NOAA